Time;durP1;ratioP1;P1;durP2;ratioP2;P2;SDS_P1;SDS_P2;PMS_P1;PMS_P2;Temp;Humidity;BMP_temperature;BMP_pressure;BME280_temperature;BME280_humidity;BME280_pressure;Samples;Min_cycle;Max_cycle;Signal;HPM_P1;HPM_P2
2021/01/15 00:02:03;;;;;;;4.73;3.60;;;;;;;3.22;61.25;99041.38;5037509;28;20029;-76
2021/01/15 00:04:30;;;;;;;4.87;3.87;;;;;;;3.07;60.76;99031.41;5038185;28;20034;-76
2021/01/15 00:06:57;;;;;;;4.40;3.93;;;;;;;3.23;60.48;99059.50;5020022;28;20104;-76
2021/01/15 00:09:23;;;;;;;3.87;3.57;;;;;;;2.98;60.64;98993.16;5037335;28;20112;-76
2021/01/15 00:11:49;;;;;;;4.40;3.70;;;;;;;3.07;60.25;98999.31;5037166;28;20424;-76
2021/01/15 00:14:14;;;;;;;5.07;3.20;;;;;;;2.88;60.13;98971.47;5037323;28;20045;-77
2021/01/15 00:16:40;;;;;;;4.87;3.60;;;;;;;3.24;59.76;99042.88;5037197;28;20348;-76
2021/01/15 00:19:05;;;;;;;3.60;3.30;;;;;;;2.62;59.85;98931.38;5037434;28;20030;-76
2021/01/15 00:21:33;;;;;;;4.60;3.20;;;;;;;3.39;59.75;99070.16;5037586;28;20113;-76
2021/01/15 00:24:00;;;;;;;7.93;4.33;;;;;;;3.38;59.70;99049.41;5038258;28;20055;-76
2021/01/15 00:26:28;;;;;;;5.20;4.07;;;;;;;3.14;58.92;99016.03;5020295;28;20029;-76
2021/01/15 00:28:55;;;;;;;4.67;4.00;;;;;;;3.37;59.26;99053.00;5037656;28;20115;-76
2021/01/15 00:31:29;;;;;;;4.97;3.53;;;;;;;3.39;58.84;99061.50;5037861;28;20032;-76
2021/01/15 00:33:55;;;;;;;5.10;3.33;;;;;;;3.23;59.22;99040.41;5037478;28;20034;-76
2021/01/15 00:36:20;;;;;;;4.57;3.77;;;;;;;3.27;58.91;99041.78;5037339;28;20025;-76
2021/01/15 00:38:46;;;;;;;3.40;3.07;;;;;;;3.40;58.47;99074.41;5037012;28;20021;-76
2021/01/15 00:41:11;;;;;;;3.70;3.00;;;;;;;3.47;58.22;99066.81;5019419;28;20017;-77
2021/01/15 00:43:36;;;;;;;4.37;3.40;;;;;;;3.36;57.34;99062.59;5019420;28;20036;-76
2021/01/15 00:46:07;;;;;;;5.77;3.30;;;;;;;3.34;56.98;99061.09;5037159;28;20029;-76
2021/01/15 00:48:36;;;;;;;4.97;3.70;;;;;;;3.36;56.20;99057.38;5020273;28;20045;-76
2021/01/15 00:51:08;;;;;;;5.33;3.10;;;;;;;3.09;55.05;99020.84;5036999;28;20024;-76
2021/01/15 00:53:33;;;;;;;4.87;3.50;;;;;;;3.13;55.72;99051.72;5037410;28;20377;-76
2021/01/15 00:55:59;;;;;;;4.90;3.57;;;;;;;3.28;55.18;99092.97;5037346;28;20092;-77
2021/01/15 00:58:25;;;;;;;5.83;4.70;;;;;;;3.03;55.19;99045.72;5036899;28;20031;-76
2021/01/15 01:00:51;;;;;;;5.17;3.50;;;;;;;2.46;53.82;98973.69;5036929;28;20104;-76
2021/01/15 01:03:16;;;;;;;4.47;3.50;;;;;;;3.30;54.29;99093.66;5036945;28;20056;-77
2021/01/15 01:05:42;;;;;;;4.37;3.43;;;;;;;3.21;54.20;99087.53;5018740;28;20378;-76
2021/01/15 01:08:08;;;;;;;5.57;4.30;;;;;;;3.26;54.03;99082.69;5037024;28;20100;-76
2021/01/15 01:10:35;;;;;;;4.93;3.67;;;;;;;3.16;53.59;99084.50;5037865;28;20082;-77
2021/01/15 01:13:00;;;;;;;5.00;3.70;;;;;;;2.50;54.06;98967.22;5038278;28;20029;-76
2021/01/15 01:15:26;;;;;;;4.50;3.40;;;;;;;3.01;53.64;99073.72;5023111;28;20025;-77
2021/01/15 01:17:53;;;;;;;5.50;3.83;;;;;;;2.67;53.81;99000.38;5040782;28;20355;-76
2021/01/15 01:20:19;;;;;;;5.37;4.07;;;;;;;3.22;53.52;99080.50;5047704;23;20103;-77
2021/01/15 01:22:53;;;;;;;4.83;3.53;;;;;;;3.06;53.70;99084.53;5055254;23;20041;-77
2021/01/15 01:25:19;;;;;;;4.30;3.57;;;;;;;3.10;53.41;99098.13;5022456;23;20046;-79
2021/01/15 01:27:45;;;;;;;5.17;3.40;;;;;;;2.80;52.88;99053.00;5020394;28;20455;-77
2021/01/15 01:30:12;;;;;;;4.07;3.67;;;;;;;2.83;52.66;99075.38;5021313;28;20502;-77
2021/01/15 01:32:37;;;;;;;4.53;3.40;;;;;;;3.02;52.62;99093.63;5022785;28;20447;-77
2021/01/15 01:35:05;;;;;;;7.60;4.30;;;;;;;2.20;52.86;98981.22;5039647;28;20013;-77
2021/01/15 01:37:30;;;;;;;4.27;3.50;;;;;;;2.78;51.66;99101.88;5040403;28;20025;-77
2021/01/15 01:39:55;;;;;;;5.30;4.00;;;;;;;2.85;52.93;99084.69;5021767;28;20108;-76
2021/01/15 01:42:21;;;;;;;5.70;3.73;;;;;;;2.80;52.97;99086.09;5046212;23;20357;-76
2021/01/15 01:44:47;;;;;;;4.90;3.40;;;;;;;2.94;53.26;99118.72;5021830;28;20018;-77
2021/01/15 01:47:13;;;;;;;4.40;3.20;;;;;;;2.10;52.47;99004.66;5039307;28;20447;-76
2021/01/15 01:49:38;;;;;;;3.80;3.30;;;;;;;2.43;52.83;99052.94;5039170;28;20029;-77
2021/01/15 01:52:05;;;;;;;4.03;3.57;;;;;;;2.59;52.90;99080.22;5039049;28;20052;-77
2021/01/15 01:54:36;;;;;;;4.13;3.20;;;;;;;2.70;52.22;99106.94;5040274;28;20040;-78
2021/01/15 01:57:04;;;;;;;4.05;3.33;;;;;;;2.70;52.46;99112.16;5019274;28;20021;-77
2021/01/15 01:59:30;;;;;;;4.17;3.67;;;;;;;2.22;52.44;99047.84;5017624;28;20033;-76
2021/01/15 02:01:56;;;;;;;4.83;3.70;;;;;;;2.80;52.43;99146.88;5035097;23;20366;-77
2021/01/15 02:04:22;;;;;;;4.40;3.50;;;;;;;2.90;52.30;99139.03;5037886;28;20096;-76
2021/01/15 02:06:47;;;;;;;5.30;3.47;;;;;;;2.68;52.65;99118.47;5037393;28;20017;-76
2021/01/15 02:09:13;;;;;;;5.83;4.03;;;;;;;2.33;52.48;99051.31;5020420;28;20466;-76
2021/01/15 02:11:57;;;;;;;3.67;3.27;;;;;;;2.88;52.33;99131.34;5019460;28;20424;-76
2021/01/15 02:14:22;;;;;;;4.37;3.80;;;;;;;2.82;52.48;99147.56;5038252;28;20056;-77
2021/01/15 02:16:52;;;;;;;4.30;3.03;;;;;;;2.71;52.28;99126.03;5037914;28;20017;-76
2021/01/15 02:19:23;;;;;;;4.23;3.50;;;;;;;2.81;52.56;99147.69;5037781;28;20108;-77
2021/01/15 02:21:57;;;;;;;4.23;3.00;;;;;;;2.74;51.80;99146.59;5037735;28;20378;-77
2021/01/15 02:24:34;;;;;;;5.37;4.13;;;;;;;2.70;51.30;99153.03;5020260;28;20025;-76
2021/01/15 02:27:32;;;;;;;3.83;3.00;;;;;;;2.71;51.64;99165.13;5037681;28;20025;-76
2021/01/15 02:30:00;;;;;;;3.87;3.17;;;;;;;2.72;51.60;99161.56;5020279;28;20322;-77
2021/01/15 02:32:40;;;;;;;4.13;3.03;;;;;;;2.63;51.10;99144.13;5037271;28;20387;-75
2021/01/15 02:35:23;;;;;;;4.47;3.37;;;;;;;2.78;51.58;99167.03;5019262;28;20035;-76
2021/01/15 02:37:58;;;;;;;;;;;;;;;2.69;51.48;99167.84;5036552;28;20026;-76
2021/01/15 02:40:32;;;;;;;4.83;3.47;;;;;;;2.82;52.08;99168.41;5019410;28;19952;-76
2021/01/15 02:43:02;;;;;;;4.87;3.23;;;;;;;2.33;51.89;99098.19;5036018;28;20021;-76
2021/01/15 02:45:28;;;;;;;4.90;3.70;;;;;;;2.55;51.60;99145.63;5036109;28;20025;-77
2021/01/15 02:47:56;;;;;;;4.27;3.43;;;;;;;2.17;52.18;99096.09;5036510;28;20021;-76
2021/01/15 02:50:23;;;;;;;3.57;3.03;;;;;;;2.70;52.47;99189.53;5036701;28;20067;-76
2021/01/15 02:52:54;;;;;;;4.00;3.20;;;;;;;2.74;51.96;99189.13;5035593;28;20028;-76
2021/01/15 02:55:21;;;;;;;4.50;3.13;;;;;;;2.74;52.37;99193.50;5035673;28;20030;-77
2021/01/15 02:57:46;;;;;;;4.53;3.67;;;;;;;2.12;51.88;99078.28;5036174;28;20028;-76
2021/01/15 03:00:17;;;;;;;5.37;3.73;;;;;;;2.76;52.00;99186.38;5035883;28;20402;-77
2021/01/15 03:02:55;;;;;;;4.68;3.38;;;;;;;2.81;52.09;99192.84;5018123;28;20060;-77
2021/01/15 03:05:46;;;;;;;3.40;2.90;;;;;;;2.40;51.62;99128.75;5018408;28;20030;-76
2021/01/15 03:08:12;;;;;;;3.03;2.73;;;;;;;2.58;51.32;99159.34;5025643;28;20034;-76
2021/01/15 03:10:40;;;;;;;6.10;3.57;;;;;;;2.72;51.62;99177.19;5036932;28;20045;-76
2021/01/15 03:13:06;;;;;;;4.27;3.30;;;;;;;2.68;51.10;99168.81;5036114;28;20477;-77
2021/01/15 03:15:35;;;;;;;3.90;2.40;;;;;;;1.76;50.38;99042.47;5037517;28;20447;-77
2021/01/15 03:18:01;;;;;;;7.30;3.20;;;;;;;2.64;50.80;99169.22;5020131;28;20021;-76
2021/01/15 03:20:27;;;;;;;3.40;2.63;;;;;;;2.67;50.64;99168.97;5038833;28;20095;-77
2021/01/15 03:22:55;;;;;;;2.80;2.50;;;;;;;2.62;51.18;99151.13;5037591;28;20022;-77
2021/01/15 03:25:20;;;;;;;4.67;3.00;;;;;;;2.33;50.69;99113.81;5044506;23;20052;-76
2021/01/15 03:27:47;;;;;;;2.43;2.23;;;;;;;2.52;50.27;99150.31;5037720;28;20057;-76
2021/01/15 03:30:21;;;;;;;2.93;2.30;;;;;;;2.63;49.94;99173.63;5023434;28;20056;-76
2021/01/15 03:32:49;;;;;;;3.17;2.87;;;;;;;2.36;50.03;99137.81;5023134;28;20021;-76
2021/01/15 03:35:24;;;;;;;2.67;2.47;;;;;;;2.26;50.31;99129.16;5041575;28;20021;-77
2021/01/15 03:38:02;;;;;;;2.77;2.43;;;;;;;2.54;48.94;99180.47;5041135;28;20324;-76
2021/01/15 03:40:30;;;;;;;3.20;2.50;;;;;;;2.49;50.05;99187.88;5041108;28;20339;-77
2021/01/15 03:42:56;;;;;;;2.87;2.57;;;;;;;2.51;50.09;99201.59;5040249;28;20025;-77
2021/01/15 03:45:23;;;;;;;2.87;2.50;;;;;;;2.41;49.64;99177.31;5023539;28;20115;-76
2021/01/15 03:47:49;;;;;;;5.00;2.53;;;;;;;2.54;50.05;99201.31;5040942;28;20024;-76
2021/01/15 03:50:15;;;;;;;2.40;2.20;;;;;;;2.39;49.52;99175.78;5040700;28;20033;-76
2021/01/15 03:52:40;;;;;;;3.67;2.67;;;;;;;2.44;49.71;99207.47;5040092;28;20025;-76
2021/01/15 03:55:07;;;;;;;4.13;2.80;;;;;;;2.53;49.54;99198.84;5039372;28;20029;-76
2021/01/15 03:57:34;;;;;;;3.83;3.20;;;;;;;2.42;49.08;99170.31;5021982;28;20052;-77
2021/01/15 04:00:01;;;;;;;3.50;3.03;;;;;;;2.38;49.78;99174.16;5020854;28;20436;-76
2021/01/15 04:02:26;;;;;;;4.90;3.07;;;;;;;2.28;49.59;99162.91;5037960;28;20071;-76
2021/01/15 04:04:52;;;;;;;5.80;3.47;;;;;;;2.60;49.55;99199.97;5037582;28;20025;-76
2021/01/15 04:07:18;;;;;;;5.27;3.90;;;;;;;2.53;49.82;99191.03;5037363;28;20029;-76
2021/01/15 04:09:44;;;;;;;4.97;3.73;;;;;;;2.26;49.70;99160.41;5037397;28;20442;-76
2021/01/15 04:12:13;;;;;;;6.03;3.03;;;;;;;2.34;49.41;99167.56;5039111;28;20055;-76
2021/01/15 04:14:40;;;;;;;3.90;2.97;;;;;;;2.08;49.53;99162.00;5039122;28;20028;-76
2021/01/15 04:17:06;;;;;;;3.50;2.73;;;;;;;2.52;49.85;99228.47;5038380;28;20029;-76
2021/01/15 04:19:33;;;;;;;3.07;2.77;;;;;;;2.60;49.59;99231.22;5038477;28;20359;-76
2021/01/15 04:21:58;;;;;;;4.43;3.47;;;;;;;2.26;49.69;99191.69;5045775;23;20037;-76
2021/01/15 04:24:24;;;;;;;4.80;3.70;;;;;;;2.03;49.79;99159.78;5020658;28;20024;-77
2021/01/15 04:26:54;;;;;;;4.97;3.70;;;;;;;2.51;49.36;99235.47;5037642;28;20059;-77
2021/01/15 04:29:20;;;;;;;6.13;3.37;;;;;;;2.33;49.24;99212.81;5020815;28;20036;-76
2021/01/15 04:31:46;;;;;;;4.33;3.40;;;;;;;2.18;49.57;99205.34;5038984;28;20025;-77
2021/01/15 04:34:12;;;;;;;4.30;3.90;;;;;;;2.52;49.73;99236.28;5020759;28;20034;-76
2021/01/15 04:36:37;;;;;;;4.17;3.37;;;;;;;2.63;49.73;99243.16;5038252;28;20090;-76
2021/01/15 04:39:04;;;;;;;8.60;4.93;;;;;;;2.57;49.41;99231.50;5037557;28;20934;-76
2021/01/15 04:41:32;;;;;;;6.17;4.73;;;;;;;2.45;49.32;99222.97;5018991;28;20021;-76
2021/01/15 04:43:57;;;;;;;4.47;3.53;;;;;;;2.53;49.36;99245.75;5037222;28;20240;-76
2021/01/15 04:46:24;;;;;;;5.40;3.70;;;;;;;2.47;49.65;99246.28;5037611;28;20164;-76
2021/01/15 04:48:50;;;;;;;4.47;3.10;;;;;;;1.96;49.68;99178.69;5020366;28;20071;-77
2021/01/15 04:51:29;;;;;;;4.67;3.20;;;;;;;2.10;49.39;99204.34;5020181;28;20035;-77
2021/01/15 04:54:00;;;;;;;4.47;3.33;;;;;;;1.94;50.22;99189.22;5037222;28;20451;-76
2021/01/15 04:56:51;;;;;;;3.63;3.33;;;;;;;2.43;49.82;99260.53;5037395;28;20459;-76
2021/01/15 04:59:18;;;;;;;8.57;3.67;;;;;;;1.57;49.81;99135.13;5037788;28;20018;-76
2021/01/15 05:01:45;;;;;;;3.40;2.67;;;;;;;2.37;49.74;99276.72;5038062;28;20030;-76
2021/01/15 05:04:12;;;;;;;4.17;2.90;;;;;;;2.37;49.93;99272.31;5038723;28;20029;-76
2021/01/15 05:06:43;;;;;;;3.53;3.07;;;;;;;2.13;49.44;99219.72;5038323;28;20025;-77
2021/01/15 05:09:11;;;;;;;3.40;3.07;;;;;;;2.31;49.24;99251.19;5020314;28;20060;-76
2021/01/15 05:11:37;;;;;;;4.03;3.13;;;;;;;2.07;49.09;99209.81;5038830;28;20032;-77
2021/01/15 05:14:08;;;;;;;6.10;4.07;;;;;;;2.37;49.46;99272.31;5038484;28;20048;-77
2021/01/15 05:16:36;;;;;;;4.23;3.50;;;;;;;1.96;49.16;99220.34;5038078;28;20032;-76
2021/01/15 05:19:02;;;;;;;5.07;3.70;;;;;;;2.39;49.55;99275.63;5037805;28;20032;-78
2021/01/15 05:21:28;;;;;;;5.83;3.63;;;;;;;2.42;49.54;99280.56;5045364;23;20125;-76
2021/01/15 05:23:54;;;;;;;5.60;3.73;;;;;;;2.18;50.14;99238.38;5038265;28;20075;-76
2021/01/15 05:26:22;;;;;;;4.63;3.67;;;;;;;2.47;49.35;99295.81;5037690;28;20079;-76
2021/01/15 05:28:49;;;;;;;7.60;4.90;;;;;;;2.38;49.42;99270.53;5044378;23;20440;-76
2021/01/15 05:31:14;;;;;;;9.10;5.80;;;;;;;2.55;49.70;99299.38;5018598;28;20039;-76
2021/01/15 05:33:39;;;;;;;6.80;4.30;;;;;;;1.91;49.60;99218.97;5036606;28;20021;-77
2021/01/15 05:36:05;;;;;;;6.03;4.37;;;;;;;2.38;49.33;99304.41;5036397;28;20029;-76
2021/01/15 05:38:30;;;;;;;4.87;4.37;;;;;;;2.53;49.73;99323.94;5019266;28;20048;-76
2021/01/15 05:40:56;;;;;;;4.90;4.00;;;;;;;2.60;49.26;99311.19;5037898;28;20029;-76
2021/01/15 05:43:30;;;;;;;5.10;4.33;;;;;;;2.72;49.20;99316.16;5038471;28;20026;-76
2021/01/15 05:46:14;;;;;;;8.30;4.90;;;;;;;2.65;48.43;99314.22;5037459;28;20021;-76
2021/01/15 05:51:05;;;;;;;9.23;5.95;;;;;;;2.32;49.25;99253.66;5050236;23;20415;-77
2021/01/15 05:53:41;;;;;;;11.17;6.80;;;;;;;2.61;48.82;99318.06;5038310;28;20029;-76
2021/01/15 05:56:07;;;;;;;12.77;7.70;;;;;;;2.30;49.16;99273.00;5018934;28;20029;-77
2021/01/15 05:58:32;;;;;;;14.37;7.37;;;;;;;2.13;49.11;99279.63;5036897;28;20502;-76
2021/01/15 06:00:58;;;;;;;15.17;8.23;;;;;;;2.39;48.99;99308.66;5019468;28;20025;-76
2021/01/15 06:03:24;;;;;;;17.03;7.90;;;;;;;2.60;49.25;99332.88;5036233;28;20031;-76
2021/01/15 06:05:50;;;;;;;9.47;5.93;;;;;;;2.60;49.21;99345.91;5018893;28;20104;-76
2021/01/15 06:08:15;;;;;;;9.90;5.33;;;;;;;1.96;49.47;99246.38;5019773;28;20439;-77
2021/01/15 06:10:44;;;;;;;6.73;5.10;;;;;;;2.02;49.29;99272.72;5036312;28;20049;-76
2021/01/15 06:13:09;;;;;;;8.87;5.97;;;;;;;2.19;49.47;99339.00;5036868;28;20075;-76
2021/01/15 06:15:47;;;;;;;7.70;6.03;;;;;;;2.47;49.42;99381.78;5043714;23;20045;-76
2021/01/15 06:18:17;;;;;;;7.37;5.40;;;;;;;2.37;49.41;99373.09;5036836;28;20108;-76
2021/01/15 06:20:46;;;;;;;6.60;4.77;;;;;;;2.47;49.44;99387.00;5037011;28;20021;-77
2021/01/15 06:23:14;;;;;;;7.83;5.60;;;;;;;2.50;49.53;99378.91;5037381;28;20424;-77
2021/01/15 06:25:58;;;;;;;6.80;5.03;;;;;;;2.34;49.12;99361.16;5019638;28;20028;-76
2021/01/15 06:28:33;;;;;;;8.50;5.37;;;;;;;2.55;49.30;99393.22;5037660;28;20025;-77
2021/01/15 06:31:00;;;;;;;6.17;4.80;;;;;;;2.67;49.56;99393.13;5036766;28;20018;-76
2021/01/15 06:33:26;;;;;;;11.27;6.07;;;;;;;2.77;49.18;99401.78;5037704;28;20022;-76
2021/01/15 06:35:51;;;;;;;9.40;6.50;;;;;;;2.49;49.20;99362.47;5044269;23;20044;-77
2021/01/15 06:38:19;;;;;;;8.87;6.40;;;;;;;2.67;49.04;99408.75;5024004;23;20038;-76
2021/01/15 06:40:49;;;;;;;9.73;6.53;;;;;;;2.45;49.43;99370.66;5043612;28;20030;-79
2021/01/15 06:43:25;;;;;;;9.07;5.40;;;;;;;2.68;49.21;99420.84;5048385;28;20024;-77
2021/01/15 06:48:22;;;;;;;8.80;5.80;;;;;;;2.60;49.14;99418.06;5021519;28;20046;-76
2021/01/15 06:50:53;;;;;;;9.80;7.10;;;;;;;2.55;49.04;99427.09;5018668;23;20101;-75
2021/01/15 06:53:26;;;;;;;6.60;4.97;;;;;;;2.66;48.93;99431.38;5048297;28;20045;-77
2021/01/15 06:55:59;;;;;;;10.13;6.87;;;;;;;2.36;49.51;99394.91;5065966;28;20041;-76
2021/01/15 06:58:38;;;;;;;10.60;6.57;;;;;;;2.52;49.29;99429.13;5017511;23;20122;-79
2021/01/15 07:01:34;;;;;;;7.00;5.70;;;;;;;2.66;48.79;99443.59;5021888;28;20459;-79
2021/01/15 07:04:35;;;;;;;7.17;5.27;;;;;;;2.73;48.88;99445.56;5026442;28;20026;-76
2021/01/15 07:07:01;;;;;;;8.33;5.87;;;;;;;2.68;49.21;99447.72;5052891;23;20053;-77
2021/01/15 07:09:29;;;;;;;9.27;6.10;;;;;;;2.79;49.25;99457.25;5036699;28;20099;-78
2021/01/15 07:11:55;;;;;;;18.40;10.47;;;;;;;2.92;49.17;99459.63;5008111;28;20033;-77
2021/01/15 07:14:27;;;;;;;11.20;7.77;;;;;;;2.47;48.59;99392.22;5036685;28;20044;-77
2021/01/15 07:16:56;;;;;;;8.00;5.82;;;;;;;2.54;48.98;99422.84;5055787;23;20041;-78
2021/01/15 07:19:36;;;;;;;6.50;5.13;;;;;;;2.99;48.23;99474.66;5047529;28;20040;-76
2021/01/15 07:22:01;;;;;;;13.37;7.63;;;;;;;2.97;49.16;99479.13;5040833;28;20037;-79
2021/01/15 07:24:33;;;;;;;12.23;8.80;;;;;;;3.03;49.13;99477.81;5041455;23;20068;-77
2021/01/15 07:26:59;;;;;;;8.60;5.53;;;;;;;3.08;48.59;99480.84;5029104;23;20041;-77
2021/01/15 07:29:26;;;;;;;7.53;5.60;;;;;;;2.79;48.98;99429.38;5031455;28;20034;-77
2021/01/15 07:32:37;;;;;;;6.07;5.03;;;;;;;3.20;47.81;99492.84;5031716;28;20321;-77
2021/01/15 07:35:03;;;;;;;9.27;4.97;;;;;;;2.88;48.36;99483.34;5013465;28;20038;-75
2021/01/15 07:37:30;;;;;;;8.70;5.60;;;;;;;3.08;48.27;99486.91;5012301;28;20136;-76
2021/01/15 07:40:04;;;;;;;11.70;8.10;;;;;;;3.20;47.91;99500.66;5023789;28;20021;-81
2021/01/15 07:42:57;;;;;;;7.90;5.20;;;;;;;3.16;47.45;99483.63;5024010;28;20033;-77
2021/01/15 07:45:25;;;;;;;8.75;5.30;;;;;;;3.33;48.43;99498.66;5020862;28;20064;-77
2021/01/15 07:48:01;;;;;;;8.43;5.93;;;;;;;3.25;46.99;99508.09;5021905;28;20033;-78
2021/01/15 07:50:44;;;;;;;9.33;6.07;;;;;;;3.32;47.51;99517.88;5005390;28;20030;-74
2021/01/15 07:53:15;;;;;;;10.07;6.00;;;;;;;3.39;47.75;99519.00;5021130;28;20033;-77
2021/01/15 07:56:00;;;;;;;7.37;5.20;;;;;;;3.07;47.30;99458.34;5030059;28;20117;-76
2021/01/15 07:58:38;;;;;;;6.40;4.50;;;;;;;3.40;47.53;99509.38;5020505;28;20096;-76
2021/01/15 08:01:12;;;;;;;6.90;4.90;;;;;;;2.96;47.66;99442.75;5025467;28;20464;-76
2021/01/15 08:03:42;;;;;;;9.63;4.50;;;;;;;3.25;47.52;99487.22;5003830;28;20034;-77
2021/01/15 08:06:09;;;;;;;9.03;5.13;;;;;;;3.45;47.96;99525.47;5022548;28;20040;-76
2021/01/15 08:08:41;;;;;;;8.70;5.33;;;;;;;3.50;47.95;99520.66;5015416;28;20029;-76
2021/01/15 08:11:14;;;;;;;;;;;;;;;3.54;48.05;99539.50;5017882;28;20420;-76
2021/01/15 08:13:39;;;;;;;7.63;4.67;;;;;;;3.48;47.46;99509.53;5020280;28;19920;-75
2021/01/15 08:16:06;;;;;;;6.03;4.67;;;;;;;3.46;47.25;99517.50;5006178;28;20025;-76
2021/01/15 08:18:33;;;;;;;9.23;5.33;;;;;;;3.69;47.28;99557.25;5018177;28;20034;-76
2021/01/15 08:20:59;;;;;;;6.20;5.00;;;;;;;3.47;47.25;99534.81;5001765;28;20057;-76
2021/01/15 08:23:26;;;;;;;6.50;4.63;;;;;;;3.46;47.67;99516.66;5018565;28;20021;-76
2021/01/15 08:26:32;;;;;;;6.60;4.60;;;;;;;3.63;46.99;99551.75;5021723;28;20031;-76
2021/01/15 08:28:57;;;;;;;7.20;4.47;;;;;;;3.40;47.02;99501.56;5015253;28;20041;-77
2021/01/15 08:31:23;;;;;;;6.30;4.77;;;;;;;3.38;47.11;99501.69;5021389;28;20455;-76
2021/01/15 08:34:05;;;;;;;8.83;5.17;;;;;;;3.94;47.17;99545.50;5004419;28;20117;-76
2021/01/15 08:36:31;;;;;;;;;;;;;;;3.87;47.26;99554.03;5019239;28;20637;-76
2021/01/15 08:38:57;;;;;;;9.20;4.20;;;;;;;3.89;47.06;99555.53;5019131;28;19913;-76
2021/01/15 08:41:25;;;;;;;5.83;4.67;;;;;;;3.60;46.60;99531.97;5015876;28;20129;-75
2021/01/15 08:43:52;;;;;;;6.77;4.27;;;;;;;3.91;46.60;99563.25;5016008;28;20037;-77
2021/01/15 08:46:18;;;;;;;5.90;4.43;;;;;;;3.91;46.46;99534.50;5017223;28;20029;-76
2021/01/15 08:48:46;;;;;;;5.83;4.20;;;;;;;4.06;46.42;99578.38;5001126;28;20068;-77
2021/01/15 08:51:18;;;;;;;5.80;4.00;;;;;;;4.08;45.77;99571.25;5013854;28;20117;-76
2021/01/15 08:54:03;;;;;;;5.10;4.23;;;;;;;3.70;45.86;99508.47;5016328;28;20038;-76
2021/01/15 08:56:39;;;;;;;6.13;4.20;;;;;;;3.57;45.63;99507.91;5014993;28;20116;-76
2021/01/15 08:59:26;;;;;;;5.83;4.43;;;;;;;4.06;45.46;99574.94;5016204;28;20033;-76
2021/01/15 09:01:56;;;;;;;9.00;4.20;;;;;;;3.98;45.34;99580.03;5016958;28;20041;-75
2021/01/15 09:04:26;;;;;;;6.33;4.27;;;;;;;3.98;45.26;99564.34;5018110;28;20021;-76
2021/01/15 09:06:54;;;;;;;5.60;4.33;;;;;;;3.63;45.59;99510.81;5002015;28;20021;-75
2021/01/15 09:09:21;;;;;;;6.50;4.43;;;;;;;4.09;45.67;99559.00;5018581;28;20037;-76
2021/01/15 09:11:49;;;;;;;8.67;5.50;;;;;;;4.24;45.07;99573.31;4999342;28;20079;-76
2021/01/15 09:14:19;;;;;;;5.93;4.37;;;;;;;4.27;45.54;99575.66;5022227;28;20029;-76
2021/01/15 09:16:47;;;;;;;8.23;4.63;;;;;;;4.35;45.06;99567.13;5021252;28;20025;-78
2021/01/15 09:19:13;;;;;;;4.10;3.60;;;;;;;4.36;44.85;99568.78;5014906;28;20179;-76
2021/01/15 09:22:04;;;;;;;5.63;4.47;;;;;;;4.28;44.46;99559.00;5015426;28;20448;-76
2021/01/15 09:24:31;;;;;;;6.23;4.30;;;;;;;4.40;44.61;99550.06;5020471;28;20025;-75
2021/01/15 09:27:00;;;;;;;6.77;4.60;;;;;;;4.49;44.91;99547.63;5019769;28;20108;-79
2021/01/15 09:29:27;;;;;;;6.73;4.90;;;;;;;4.58;44.79;99537.13;5013602;28;20347;-79
2021/01/15 09:31:53;;;;;;;8.77;5.70;;;;;;;4.65;45.09;99546.06;5019750;28;20037;-77
2021/01/15 09:34:22;;;;;;;7.23;5.07;;;;;;;4.13;43.94;99458.47;5024269;28;20120;-78
2021/01/15 09:36:49;;;;;;;7.50;5.77;;;;;;;4.72;44.52;99546.34;5025794;28;20104;-79
2021/01/15 09:39:16;;;;;;;7.20;4.97;;;;;;;4.58;44.24;99505.75;5030841;23;20077;-79
2021/01/15 09:41:46;;;;;;;7.57;5.53;;;;;;;4.28;44.31;99443.19;5016025;28;20411;-76
2021/01/15 09:44:19;;;;;;;7.57;4.47;;;;;;;4.97;43.92;99542.28;5015773;28;20029;-79
2021/01/15 09:46:46;;;;;;;;;;;;;;;4.86;43.38;99530.19;5003301;28;20039;-75
2021/01/15 09:49:12;;;;;;;4.80;4.27;;;;;;;5.01;44.04;99531.38;5019362;28;19917;-77
2021/01/15 09:51:38;;;;;;;6.30;5.00;;;;;;;4.77;43.66;99481.34;5018230;28;20422;-75
2021/01/15 09:54:04;;;;;;;5.67;4.40;;;;;;;5.08;43.94;99531.63;5035270;23;20029;-77
2021/01/15 09:56:40;;;;;;;5.27;3.90;;;;;;;4.86;41.92;99496.19;5019162;28;20068;-80
2021/01/15 09:59:07;;;;;;;6.07;4.63;;;;;;;5.10;42.96;99534.94;5018225;28;20037;-76
2021/01/15 10:01:33;;;;;;;8.10;5.97;;;;;;;5.18;42.69;99526.38;5014595;28;20025;-76
2021/01/15 10:03:59;;;;;;;7.27;4.50;;;;;;;5.22;42.32;99548.69;5036203;28;20113;-77
2021/01/15 10:06:27;;;;;;;5.90;4.07;;;;;;;5.27;42.41;99567.41;5015905;28;20112;-76
2021/01/15 10:08:55;;;;;;;5.57;3.73;;;;;;;5.34;42.03;99544.94;5033595;28;20454;-77
2021/01/15 10:11:23;;;;;;;6.47;4.73;;;;;;;5.35;41.56;99542.16;5032071;28;20089;-79
2021/01/15 10:13:50;;;;;;;5.63;4.47;;;;;;;5.00;41.69;99502.75;5034356;28;20040;-80
2021/01/15 10:16:15;;;;;;;7.00;5.23;;;;;;;5.30;42.17;99533.94;5034054;28;20038;-78
2021/01/15 10:18:41;;;;;;;6.67;4.90;;;;;;;5.19;41.40;99507.91;5017208;28;20034;-77
2021/01/15 10:21:07;;;;;;;6.63;5.07;;;;;;;5.31;42.08;99525.09;5020472;23;20112;-76
2021/01/15 10:23:35;;;;;;;7.77;6.00;;;;;;;5.34;41.78;99532.66;5035124;28;20037;-75
2021/01/15 10:26:01;;;;;;;8.83;6.03;;;;;;;5.16;42.17;99479.41;5032385;28;20076;-76
2021/01/15 10:28:26;;;;;;;10.40;5.93;;;;;;;5.30;40.42;99463.25;5033577;28;20037;-75
2021/01/15 10:30:52;;;;;;;7.23;5.50;;;;;;;5.75;41.65;99509.56;5032551;28;20547;-77
2021/01/15 10:33:22;;;;;;;5.80;4.80;;;;;;;5.69;40.70;99503.13;5019713;28;20060;-76
2021/01/15 10:35:49;;;;;;;6.33;4.87;;;;;;;5.94;40.88;99530.41;5032824;28;20037;-77
2021/01/15 10:38:15;;;;;;;8.73;5.43;;;;;;;5.50;41.30;99435.16;5033082;28;20029;-75
2021/01/15 10:40:40;;;;;;;8.67;6.77;;;;;;;6.02;41.18;99520.03;5020798;28;20034;-76
2021/01/15 10:43:05;;;;;;;7.50;5.57;;;;;;;5.93;40.90;99509.59;5019508;28;20104;-76
2021/01/15 10:45:31;;;;;;;7.10;4.77;;;;;;;5.91;40.74;99504.50;5036722;28;20064;-77
2021/01/15 10:47:56;;;;;;;7.20;5.43;;;;;;;5.86;40.84;99483.13;5039798;28;20037;-78
2021/01/15 10:50:22;;;;;;;6.57;4.60;;;;;;;5.93;40.01;99505.19;5040280;28;20033;-75
2021/01/15 10:52:52;;;;;;;5.30;4.40;;;;;;;5.45;39.73;99437.38;5039548;28;20036;-75
2021/01/15 10:55:18;;;;;;;7.53;6.20;;;;;;;3.99;40.09;99211.56;5064700;23;20049;-78
2021/01/15 10:57:44;;;;;;;7.53;4.60;;;;;;;5.79;40.07;99491.75;5040573;28;20044;-77
2021/01/15 11:00:11;;;;;;;8.30;5.23;;;;;;;5.10;40.17;99360.44;5038736;28;20021;-77
2021/01/15 11:02:36;;;;;;;7.57;5.70;;;;;;;5.61;40.34;99415.78;5020424;28;20025;-76
2021/01/15 11:05:02;;;;;;;6.60;5.27;;;;;;;5.84;40.31;99468.53;5036948;28;20174;-75
2021/01/15 11:07:27;;;;;;;7.13;5.33;;;;;;;5.68;40.22;99419.44;5022332;28;20025;-77
2021/01/15 11:09:53;;;;;;;6.60;4.67;;;;;;;5.94;40.08;99457.03;5037319;28;20445;-75
2021/01/15 11:12:20;;;;;;;7.67;4.87;;;;;;;5.80;39.92;99435.75;5036902;28;20026;-76
2021/01/15 11:14:45;;;;;;;8.17;5.03;;;;;;;5.68;40.13;99422.88;5038969;28;20033;-77
2021/01/15 11:17:11;;;;;;;8.73;5.43;;;;;;;5.72;40.25;99429.47;5037066;28;20411;-77
2021/01/15 11:19:36;;;;;;;7.73;5.27;;;;;;;5.74;40.32;99453.72;5021031;28;20033;-78
2021/01/15 11:22:01;;;;;;;7.73;6.20;;;;;;;5.80;40.50;99454.09;5039551;28;20037;-75
2021/01/15 11:24:27;;;;;;;4.93;4.10;;;;;;;5.68;40.42;99461.34;5038585;28;20076;-76
2021/01/15 11:26:52;;;;;;;8.03;5.10;;;;;;;5.40;40.81;99402.97;5035054;28;20155;-75
2021/01/15 11:29:18;;;;;;;5.80;5.20;;;;;;;5.68;40.61;99459.56;5048555;23;20091;-75
2021/01/15 11:31:43;;;;;;;9.07;5.70;;;;;;;5.42;40.53;99408.88;5036833;28;20120;-76
2021/01/15 11:34:10;;;;;;;7.77;5.63;;;;;;;5.79;40.95;99449.81;5019132;28;20084;-77
2021/01/15 11:36:35;;;;;;;6.93;5.70;;;;;;;5.78;41.02;99446.38;5020976;28;20037;-77
2021/01/15 11:39:06;;;;;;;7.83;5.43;;;;;;;5.88;40.89;99455.00;5002642;23;20053;-76
2021/01/15 11:41:31;;;;;;;6.17;4.80;;;;;;;5.92;40.61;99456.38;4988002;28;20116;-83
2021/01/15 11:43:57;;;;;;;6.33;5.07;;;;;;;5.85;41.07;99434.34;4990112;28;20134;-76
2021/01/15 11:46:22;;;;;;;8.60;4.80;;;;;;;5.76;40.76;99401.19;5000326;28;20030;-77
2021/01/15 11:48:48;;;;;;;7.03;4.27;;;;;;;6.09;40.62;99452.13;5004090;28;20121;-77
2021/01/15 11:51:14;;;;;;;13.43;7.50;;;;;;;5.03;40.61;99287.91;5010252;28;20088;-76
2021/01/15 11:53:40;;;;;;;11.77;5.73;;;;;;;6.03;40.24;99444.88;5002214;28;20116;-76
2021/01/15 11:56:07;;;;;;;7.97;5.53;;;;;;;5.80;40.57;99391.22;4983388;28;20033;-77